createdAt,value
2019-02-10T00:11:44.840Z,97863.33
2019-02-10T00:16:49.415Z,97859.25
2019-02-10T00:21:53.746Z,97844.71
2019-02-10T00:27:18.000Z,97838.34
2019-02-10T00:32:41.461Z,97819.80
2019-02-10T00:37:45.747Z,97804.16
2019-02-10T00:53:42.990Z,97735.34
2019-02-10T00:58:47.232Z,97758.46
2019-02-10T01:03:51.467Z,97757.64
2019-02-10T01:08:55.873Z,97746.08
2019-02-10T01:14:00.136Z,97730.91
2019-02-10T01:19:45.008Z,97724.80
2019-02-10T01:24:49.625Z,97714.72
2019-02-10T01:30:13.805Z,97713.75
2019-02-10T01:35:18.177Z,97704.00
2019-02-10T01:40:22.486Z,97691.22
2019-02-10T01:45:26.709Z,97672.34
2019-02-10T01:50:50.013Z,97657.41
2019-02-10T01:55:54.653Z,97643.09
2019-02-10T02:00:58.995Z,97625.89
2019-02-10T02:06:22.139Z,97616.17
2019-02-10T02:11:45.437Z,97602.48
2019-02-10T02:16:49.664Z,97600.19
2019-02-10T02:22:12.970Z,97574.93
2019-02-10T02:27:17.217Z,97570.25
2019-02-10T02:32:21.453Z,97561.09
2019-02-10T02:37:25.721Z,97546.44
2019-02-10T02:42:29.965Z,97535.75
2019-02-10T02:53:02.662Z,97499.27
2019-02-10T02:58:18.289Z,97487.01
2019-02-10T03:03:22.538Z,97468.67
2019-02-10T03:08:27.751Z,97469.87
2019-02-10T03:24:29.915Z,97420.94
2019-02-10T03:29:53.149Z,97400.50
2019-02-10T03:34:57.533Z,97379.69
2019-02-10T03:40:02.226Z,97362.78
2019-02-10T03:45:06.531Z,97353.98
2019-02-10T03:50:29.830Z,97338.27
2019-02-10T03:55:34.154Z,97332.47
2019-02-10T04:00:38.468Z,97328.69
2019-02-10T04:05:42.713Z,97310.70
2019-02-10T04:16:34.725Z,97281.25
2019-02-10T04:21:38.954Z,97255.97
2019-02-10T04:26:43.273Z,97238.66
2019-02-10T04:32:06.573Z,97233.36
2019-02-10T04:37:10.810Z,97216.44
2019-02-10T04:42:15.049Z,97193.68
2019-02-10T04:52:29.395Z,97160.96
2019-02-10T04:57:52.689Z,97142.09
2019-02-10T05:02:56.962Z,97135.28
2019-02-10T05:08:01.576Z,97131.38
2019-02-10T05:13:05.849Z,97111.61
2019-02-10T05:23:39.298Z,97086.14
2019-02-10T05:28:43.541Z,97061.81
2019-02-10T05:34:06.820Z,97050.25
2019-02-10T05:39:11.069Z,97033.20
2019-02-10T05:44:15.312Z,97021.97
2019-02-10T05:49:19.539Z,97014.71
2019-02-10T05:59:33.498Z,96974.20
2019-02-10T06:04:40.696Z,96955.48
2019-02-10T06:10:04.330Z,96952.89
2019-02-10T06:15:48.487Z,96926.94
2019-02-10T06:20:52.784Z,96918.95
2019-02-10T06:25:57.031Z,96876.96
2019-02-10T06:36:30.346Z,96854.52
2019-02-10T06:57:03.904Z,96815.60
2019-02-10T07:02:27.434Z,96797.25
2019-02-10T07:13:00.215Z,96785.76
2019-02-10T07:18:42.758Z,96784.97
2019-02-10T07:24:25.062Z,96760.49
2019-02-10T07:30:07.339Z,96769.66
2019-02-10T07:36:04.542Z,96738.80
2019-02-10T07:47:34.920Z,96723.16
2019-02-10T07:59:08.824Z,96697.75
2019-02-10T08:04:51.105Z,96691.63
2019-02-10T08:10:06.680Z,96656.48
2019-02-10T08:15:33.592Z,96634.78
2019-02-10T08:21:15.867Z,96612.44
2019-02-10T08:26:58.139Z,96624.53
2019-02-10T08:32:40.403Z,96604.82
2019-02-10T08:44:11.053Z,96605.91
2019-02-10T08:49:53.331Z,96599.09
2019-02-10T08:55:37.619Z,96590.64
2019-02-10T09:01:00.941Z,96578.03
2019-02-10T09:06:24.555Z,96575.52
2019-02-10T09:11:40.139Z,96567.74
2019-02-10T09:16:44.397Z,96577.52
2019-02-10T09:26:58.877Z,96552.47
2019-02-10T09:32:03.116Z,96543.17
2019-02-10T09:37:07.589Z,96544.02
2019-02-10T09:42:11.811Z,96533.23
2019-02-10T09:47:35.116Z,96516.97
2019-02-10T09:52:58.412Z,96505.69
2019-02-10T09:58:02.769Z,96489.36
2019-02-10T10:03:07.390Z,96468.45
2019-02-10T10:08:11.918Z,96478.80
2019-02-10T10:18:26.600Z,96448.59
2019-02-10T10:23:30.827Z,96438.13
2019-02-10T10:28:35.390Z,96437.94
2019-02-10T10:33:58.768Z,96417.90
2019-02-10T10:39:27.223Z,96423.36
2019-02-10T10:44:28.115Z,96407.77
2019-02-10T10:49:32.351Z,96396.30
2019-02-10T10:54:42.656Z,96387.01
2019-02-10T10:59:42.558Z,96382.70
2019-02-10T11:04:47.099Z,96364.09
2019-02-10T11:09:52.015Z,96377.20
2019-02-10T11:15:07.921Z,96368.20
2019-02-10T11:20:24.080Z,96357.27
2019-02-10T11:25:29.039Z,96331.54
2019-02-10T11:41:51.682Z,96300.84
2019-02-10T11:47:14.972Z,96301.03
2019-02-10T11:52:38.283Z,96289.22
2019-02-10T11:57:42.516Z,96280.91
2019-02-10T12:02:46.831Z,96263.65
2019-02-10T12:13:01.435Z,96266.52
2019-02-10T12:18:05.693Z,96256.69
2019-02-10T12:23:09.973Z,96239.45
2019-02-10T12:28:33.565Z,96232.67
2019-02-10T12:33:37.800Z,96242.13
2019-02-10T12:44:11.268Z,96216.80
2019-02-10T13:10:35.305Z,96201.64
2019-02-10T13:21:07.863Z,96187.95
2019-02-10T13:26:12.123Z,96194.70
2019-02-10T13:31:16.397Z,96197.08
2019-02-10T13:36:20.623Z,96207.97
2019-02-10T13:46:53.644Z,96215.49
2019-02-10T13:51:57.895Z,96208.36
2019-02-10T13:57:21.218Z,96201.75
2019-02-10T14:02:44.559Z,96206.45
2019-02-10T14:08:07.883Z,96227.19
2019-02-10T14:18:41.308Z,96229.78
2019-02-10T14:24:04.605Z,96239.39
2019-02-10T14:29:09.423Z,96249.93
2019-02-10T14:34:32.805Z,96272.00
2019-02-10T14:39:56.499Z,96279.69
2019-02-10T14:45:00.720Z,96276.69
2019-02-10T14:55:33.988Z,96277.91
2019-02-10T15:00:38.217Z,96302.32
2019-02-10T15:06:01.834Z,96276.13
2019-02-10T15:11:06.073Z,96288.22
2019-02-10T15:16:10.296Z,96292.89
2019-02-10T15:21:14.634Z,96294.04
2019-02-10T15:26:18.876Z,96292.55
2019-02-10T15:31:42.360Z,96276.83
2019-02-10T15:36:46.611Z,96278.62
2019-02-10T15:42:09.988Z,96266.89
2019-02-10T15:47:33.649Z,96275.17
2019-02-10T15:52:38.668Z,96282.95
2019-02-10T15:58:01.969Z,96294.38
2019-02-10T16:03:06.261Z,96309.48
2019-02-10T16:08:10.486Z,96327.70
2019-02-10T16:13:14.720Z,96327.37
2019-02-10T16:23:47.999Z,96343.91
2019-02-10T16:28:52.290Z,96337.06
2019-02-10T16:34:08.441Z,96365.27
2019-02-10T16:44:43.299Z,96370.17
2019-02-10T17:00:27.536Z,96376.12
2019-02-10T17:05:31.780Z,96397.94
2019-02-10T17:10:36.040Z,96412.71
2019-02-10T17:15:40.301Z,96451.77
2019-02-10T17:21:23.971Z,96459.64
2019-02-10T17:26:28.211Z,96476.75
2019-02-10T17:31:51.517Z,96506.22
2019-02-10T17:36:55.793Z,96515.52
2019-02-10T17:42:00.021Z,96528.01
2019-02-10T17:47:23.356Z,96531.63
2019-02-10T17:52:31.989Z,96543.42
2019-02-10T18:02:43.678Z,96559.73
2019-02-10T18:07:47.915Z,96555.67
2019-02-10T18:13:11.678Z,96570.25
2019-02-10T18:18:53.889Z,96574.22
2019-02-10T18:24:36.059Z,96590.06
2019-02-10T18:29:59.312Z,96594.07
2019-02-10T18:35:23.964Z,96602.73
2019-02-10T18:40:58.912Z,96612.70
2019-02-10T18:46:30.423Z,96626.93
2019-02-10T18:51:53.649Z,96626.88
2019-02-10T18:57:16.833Z,96633.66
2019-02-10T19:02:29.977Z,96630.05
2019-02-10T19:07:53.282Z,96631.42
2019-02-10T19:13:16.436Z,96624.81
2019-02-10T19:18:27.818Z,96644.68
2019-02-10T19:24:10.134Z,96638.92
2019-02-10T19:29:52.341Z,96650.23
2019-02-10T19:35:15.786Z,96655.94
2019-02-10T19:40:39.000Z,96663.95
2019-02-10T19:46:16.655Z,96678.73
2019-02-10T19:51:58.897Z,96690.09
2019-02-10T19:57:22.881Z,96690.05
2019-02-10T20:02:46.024Z,96703.94
2019-02-10T20:08:09.375Z,96713.20
2019-02-10T20:13:51.681Z,96717.80
2019-02-10T20:19:14.870Z,96739.05
2019-02-10T20:24:57.314Z,96740.02
2019-02-10T20:30:39.526Z,96755.88
2019-02-10T20:36:03.029Z,96766.44
2019-02-10T20:41:45.260Z,96757.83
2019-02-10T20:46:58.137Z,96786.69
2019-02-10T20:52:46.217Z,96792.94
2019-02-10T20:58:05.515Z,96817.97
2019-02-10T21:03:48.087Z,96827.68
2019-02-10T21:09:11.961Z,96843.16
2019-02-10T21:14:54.202Z,96849.97
2019-02-10T21:20:37.901Z,96871.41
2019-02-10T21:26:01.127Z,96889.51
2019-02-10T21:31:24.323Z,96897.00
2019-02-10T21:37:08.250Z,96927.89
2019-02-10T21:42:29.003Z,96941.84
2019-02-10T21:48:10.952Z,96945.95
2019-02-10T21:53:34.580Z,96962.05
2019-02-10T21:58:38.905Z,96967.42
2019-02-10T22:04:02.204Z,96964.55
2019-02-10T22:14:56.414Z,96997.74
2019-02-10T22:20:19.796Z,97006.29
2019-02-10T22:36:21.361Z,97031.26
2019-02-10T22:41:25.663Z,97044.20
2019-02-10T22:46:48.967Z,97062.95
2019-02-10T23:02:50.665Z,97110.45
2019-02-10T23:07:55.270Z,97124.23
2019-02-10T23:18:09.091Z,97160.54
2019-02-10T23:23:13.343Z,97176.58
2019-02-10T23:28:17.957Z,97184.72
2019-02-10T23:33:22.213Z,97205.67
2019-02-10T23:43:35.803Z,97242.54
2019-02-10T23:48:59.092Z,97272.94
2019-02-10T23:59:14.370Z,97310.13
